sensor_id;sensor_type;location;lat;lon;timestamp;P1;durP1;ratioP1;P2;durP2;ratioP2
57730;SDS011;43570;47.476;19.040;2022-08-02T00:02:00;4.35;;;3.50;;
57730;SDS011;43570;47.476;19.040;2022-08-02T00:04:28;4.68;;;3.62;;
57730;SDS011;43570;47.476;19.040;2022-08-02T00:06:54;5.00;;;3.37;;
57730;SDS011;43570;47.476;19.040;2022-08-02T00:09:19;5.07;;;3.10;;
57730;SDS011;43570;47.476;19.040;2022-08-02T00:11:44;4.00;;;3.03;;
57730;SDS011;43570;47.476;19.040;2022-08-02T00:14:10;5.07;;;3.25;;
57730;SDS011;43570;47.476;19.040;2022-08-02T00:16:35;5.10;;;3.50;;
57730;SDS011;43570;47.476;19.040;2022-08-02T00:19:01;5.25;;;3.87;;
57730;SDS011;43570;47.476;19.040;2022-08-02T00:21:26;4.30;;;3.25;;
57730;SDS011;43570;47.476;19.040;2022-08-02T00:23:52;7.05;;;3.97;;
57730;SDS011;43570;47.476;19.040;2022-08-02T00:26:17;5.57;;;3.30;;
57730;SDS011;43570;47.476;19.040;2022-08-02T00:28:42;4.47;;;3.33;;
57730;SDS011;43570;47.476;19.040;2022-08-02T00:31:08;4.57;;;3.47;;
57730;SDS011;43570;47.476;19.040;2022-08-02T00:33:33;5.00;;;3.72;;
57730;SDS011;43570;47.476;19.040;2022-08-02T00:35:59;4.93;;;3.50;;
57730;SDS011;43570;47.476;19.040;2022-08-02T00:38:24;5.28;;;3.97;;
57730;SDS011;43570;47.476;19.040;2022-08-02T00:40:50;4.82;;;3.35;;
57730;SDS011;43570;47.476;19.040;2022-08-02T00:43:16;7.00;;;3.60;;
57730;SDS011;43570;47.476;19.040;2022-08-02T00:45:42;5.07;;;3.65;;
57730;SDS011;43570;47.476;19.040;2022-08-02T00:48:08;4.70;;;3.60;;
57730;SDS011;43570;47.476;19.040;2022-08-02T00:50:35;4.65;;;3.60;;
57730;SDS011;43570;47.476;19.040;2022-08-02T00:53:01;16.17;;;3.67;;
57730;SDS011;43570;47.476;19.040;2022-08-02T00:55:26;4.87;;;3.78;;
57730;SDS011;43570;47.476;19.040;2022-08-02T00:57:52;6.18;;;3.92;;
57730;SDS011;43570;47.476;19.040;2022-08-02T01:00:18;5.07;;;4.10;;
57730;SDS011;43570;47.476;19.040;2022-08-02T01:02:43;6.12;;;3.95;;
57730;SDS011;43570;47.476;19.040;2022-08-02T01:05:09;6.18;;;3.85;;
57730;SDS011;43570;47.476;19.040;2022-08-02T01:07:34;5.87;;;3.78;;
57730;SDS011;43570;47.476;19.040;2022-08-02T01:10:00;5.72;;;4.10;;
57730;SDS011;43570;47.476;19.040;2022-08-02T01:12:26;5.65;;;3.90;;
57730;SDS011;43570;47.476;19.040;2022-08-02T01:15:05;7.80;;;4.25;;
57730;SDS011;43570;47.476;19.040;2022-08-02T01:17:35;6.03;;;3.97;;
57730;SDS011;43570;47.476;19.040;2022-08-02T01:28:40;4.80;;;3.70;;
57730;SDS011;43570;47.476;19.040;2022-08-02T01:31:20;4.85;;;3.87;;
57730;SDS011;43570;47.476;19.040;2022-08-02T01:34:08;7.60;;;4.18;;
57730;SDS011;43570;47.476;19.040;2022-08-02T01:36:57;7.12;;;4.43;;
57730;SDS011;43570;47.476;19.040;2022-08-02T01:39:27;5.43;;;4.28;;
57730;SDS011;43570;47.476;19.040;2022-08-02T01:41:55;5.97;;;3.60;;
57730;SDS011;43570;47.476;19.040;2022-08-02T01:44:21;5.75;;;3.62;;
57730;SDS011;43570;47.476;19.040;2022-08-02T01:46:49;8.02;;;4.43;;
57730;SDS011;43570;47.476;19.040;2022-08-02T01:49:16;5.00;;;3.83;;
57730;SDS011;43570;47.476;19.040;2022-08-02T01:51:43;5.85;;;4.40;;
57730;SDS011;43570;47.476;19.040;2022-08-02T01:54:30;5.65;;;4.00;;
57730;SDS011;43570;47.476;19.040;2022-08-02T01:56:57;5.32;;;4.00;;
57730;SDS011;43570;47.476;19.040;2022-08-02T01:59:23;6.12;;;4.10;;
57730;SDS011;43570;47.476;19.040;2022-08-02T02:01:50;6.80;;;4.03;;
57730;SDS011;43570;47.476;19.040;2022-08-02T02:04:15;6.22;;;3.78;;
57730;SDS011;43570;47.476;19.040;2022-08-02T02:06:42;5.12;;;3.85;;
57730;SDS011;43570;47.476;19.040;2022-08-02T02:09:08;6.05;;;4.00;;
57730;SDS011;43570;47.476;19.040;2022-08-02T02:11:35;6.37;;;4.50;;
57730;SDS011;43570;47.476;19.040;2022-08-02T02:14:01;7.00;;;3.92;;
57730;SDS011;43570;47.476;19.040;2022-08-02T02:16:28;5.22;;;4.10;;
57730;SDS011;43570;47.476;19.040;2022-08-02T02:18:55;6.10;;;3.87;;
57730;SDS011;43570;47.476;19.040;2022-08-02T02:21:21;6.45;;;4.53;;
57730;SDS011;43570;47.476;19.040;2022-08-02T02:23:46;6.12;;;4.07;;
57730;SDS011;43570;47.476;19.040;2022-08-02T02:26:12;5.55;;;4.10;;
57730;SDS011;43570;47.476;19.040;2022-08-02T02:28:39;9.57;;;4.75;;
57730;SDS011;43570;47.476;19.040;2022-08-02T02:31:06;5.30;;;4.30;;
57730;SDS011;43570;47.476;19.040;2022-08-02T02:33:39;5.85;;;4.55;;
57730;SDS011;43570;47.476;19.040;2022-08-02T02:36:06;6.57;;;4.43;;
57730;SDS011;43570;47.476;19.040;2022-08-02T02:38:32;5.22;;;4.25;;
57730;SDS011;43570;47.476;19.040;2022-08-02T02:40:59;9.93;;;4.87;;
57730;SDS011;43570;47.476;19.040;2022-08-02T02:43:29;8.88;;;4.97;;
57730;SDS011;43570;47.476;19.040;2022-08-02T02:48:20;8.27;;;4.60;;
57730;SDS011;43570;47.476;19.040;2022-08-02T02:50:46;7.12;;;4.62;;
57730;SDS011;43570;47.476;19.040;2022-08-02T02:53:12;5.68;;;4.28;;
57730;SDS011;43570;47.476;19.040;2022-08-02T02:55:41;9.20;;;4.75;;
57730;SDS011;43570;47.476;19.040;2022-08-02T02:58:07;6.72;;;4.50;;
57730;SDS011;43570;47.476;19.040;2022-08-02T03:00:33;6.97;;;4.65;;
57730;SDS011;43570;47.476;19.040;2022-08-02T03:03:17;6.93;;;4.82;;
57730;SDS011;43570;47.476;19.040;2022-08-02T03:05:42;5.60;;;4.47;;
57730;SDS011;43570;47.476;19.040;2022-08-02T03:08:09;7.40;;;4.40;;
57730;SDS011;43570;47.476;19.040;2022-08-02T03:10:34;6.87;;;4.60;;
57730;SDS011;43570;47.476;19.040;2022-08-02T03:13:00;7.95;;;4.25;;
57730;SDS011;43570;47.476;19.040;2022-08-02T03:15:26;6.32;;;4.87;;
57730;SDS011;43570;47.476;19.040;2022-08-02T03:17:52;7.30;;;4.72;;
57730;SDS011;43570;47.476;19.040;2022-08-02T03:20:18;5.78;;;4.15;;
57730;SDS011;43570;47.476;19.040;2022-08-02T03:22:44;6.28;;;4.10;;
57730;SDS011;43570;47.476;19.040;2022-08-02T03:25:10;6.18;;;4.45;;
57730;SDS011;43570;47.476;19.040;2022-08-02T03:27:37;7.82;;;5.12;;
57730;SDS011;43570;47.476;19.040;2022-08-02T03:30:03;5.70;;;4.68;;
57730;SDS011;43570;47.476;19.040;2022-08-02T03:32:30;7.37;;;4.82;;
57730;SDS011;43570;47.476;19.040;2022-08-02T03:34:56;6.82;;;4.70;;
57730;SDS011;43570;47.476;19.040;2022-08-02T03:37:22;7.87;;;5.57;;
57730;SDS011;43570;47.476;19.040;2022-08-02T03:39:48;7.53;;;4.82;;
57730;SDS011;43570;47.476;19.040;2022-08-02T03:42:13;10.68;;;4.90;;
57730;SDS011;43570;47.476;19.040;2022-08-02T03:44:39;7.60;;;4.75;;
57730;SDS011;43570;47.476;19.040;2022-08-02T03:47:05;6.12;;;4.72;;
57730;SDS011;43570;47.476;19.040;2022-08-02T03:49:31;6.93;;;4.78;;
57730;SDS011;43570;47.476;19.040;2022-08-02T03:51:57;5.72;;;4.55;;
57730;SDS011;43570;47.476;19.040;2022-08-02T03:54:23;7.15;;;4.70;;
57730;SDS011;43570;47.476;19.040;2022-08-02T03:56:49;9.23;;;5.10;;
57730;SDS011;43570;47.476;19.040;2022-08-02T03:59:14;10.60;;;4.85;;
57730;SDS011;43570;47.476;19.040;2022-08-02T04:01:39;11.65;;;5.37;;
57730;SDS011;43570;47.476;19.040;2022-08-02T04:04:05;8.55;;;4.70;;
57730;SDS011;43570;47.476;19.040;2022-08-02T04:06:31;6.85;;;5.18;;
57730;SDS011;43570;47.476;19.040;2022-08-02T04:08:56;6.62;;;4.70;;
57730;SDS011;43570;47.476;19.040;2022-08-02T04:11:22;7.20;;;4.97;;
57730;SDS011;43570;47.476;19.040;2022-08-02T04:14:00;6.50;;;4.82;;
57730;SDS011;43570;47.476;19.040;2022-08-02T04:19:18;7.75;;;5.15;;
57730;SDS011;43570;47.476;19.040;2022-08-02T04:21:53;7.87;;;4.95;;
57730;SDS011;43570;47.476;19.040;2022-08-02T04:24:21;8.18;;;4.62;;
57730;SDS011;43570;47.476;19.040;2022-08-02T04:26:49;7.90;;;5.07;;
57730;SDS011;43570;47.476;19.040;2022-08-02T04:29:14;7.05;;;4.53;;
57730;SDS011;43570;47.476;19.040;2022-08-02T04:31:41;7.05;;;5.43;;
57730;SDS011;43570;47.476;19.040;2022-08-02T04:34:07;7.18;;;4.95;;
57730;SDS011;43570;47.476;19.040;2022-08-02T04:36:33;7.68;;;5.07;;
57730;SDS011;43570;47.476;19.040;2022-08-02T04:38:59;7.68;;;5.40;;
57730;SDS011;43570;47.476;19.040;2022-08-02T04:41:41;7.32;;;5.50;;
57730;SDS011;43570;47.476;19.040;2022-08-02T04:44:07;9.45;;;5.40;;
57730;SDS011;43570;47.476;19.040;2022-08-02T04:46:34;5.62;;;5.00;;
57730;SDS011;43570;47.476;19.040;2022-08-02T04:49:00;7.93;;;5.22;;
57730;SDS011;43570;47.476;19.040;2022-08-02T04:51:25;8.85;;;5.00;;
57730;SDS011;43570;47.476;19.040;2022-08-02T04:53:51;8.02;;;4.85;;
57730;SDS011;43570;47.476;19.040;2022-08-02T04:56:16;7.97;;;5.00;;
57730;SDS011;43570;47.476;19.040;2022-08-02T04:58:41;8.05;;;4.45;;
57730;SDS011;43570;47.476;19.040;2022-08-02T05:01:07;8.65;;;5.05;;
57730;SDS011;43570;47.476;19.040;2022-08-02T05:03:32;6.40;;;4.80;;
57730;SDS011;43570;47.476;19.040;2022-08-02T05:05:57;12.98;;;11.52;;
57730;SDS011;43570;47.476;19.040;2022-08-02T05:08:25;6.97;;;4.60;;
57730;SDS011;43570;47.476;19.040;2022-08-02T05:10:50;7.57;;;5.15;;
57730;SDS011;43570;47.476;19.040;2022-08-02T05:13:16;7.32;;;5.03;;
57730;SDS011;43570;47.476;19.040;2022-08-02T05:15:41;8.07;;;4.72;;
57730;SDS011;43570;47.476;19.040;2022-08-02T05:18:06;7.15;;;5.40;;
57730;SDS011;43570;47.476;19.040;2022-08-02T05:20:32;7.03;;;4.68;;
57730;SDS011;43570;47.476;19.040;2022-08-02T05:22:57;6.87;;;5.20;;
57730;SDS011;43570;47.476;19.040;2022-08-02T05:25:23;8.50;;;5.37;;
57730;SDS011;43570;47.476;19.040;2022-08-02T05:27:48;8.10;;;4.70;;
57730;SDS011;43570;47.476;19.040;2022-08-02T05:30:13;7.62;;;4.70;;
57730;SDS011;43570;47.476;19.040;2022-08-02T05:32:43;7.60;;;4.60;;
57730;SDS011;43570;47.476;19.040;2022-08-02T05:35:09;7.28;;;5.97;;
57730;SDS011;43570;47.476;19.040;2022-08-02T05:37:35;9.70;;;4.60;;
57730;SDS011;43570;47.476;19.040;2022-08-02T05:40:01;11.00;;;5.30;;
57730;SDS011;43570;47.476;19.040;2022-08-02T05:42:26;7.50;;;5.35;;
57730;SDS011;43570;47.476;19.040;2022-08-02T05:44:55;8.15;;;5.00;;
57730;SDS011;43570;47.476;19.040;2022-08-02T05:47:20;7.87;;;4.75;;
57730;SDS011;43570;47.476;19.040;2022-08-02T05:49:48;6.78;;;4.97;;
57730;SDS011;43570;47.476;19.040;2022-08-02T05:52:14;9.15;;;4.90;;
57730;SDS011;43570;47.476;19.040;2022-08-02T05:55:02;7.50;;;5.32;;
57730;SDS011;43570;47.476;19.040;2022-08-02T06:00:10;7.07;;;4.62;;
57730;SDS011;43570;47.476;19.040;2022-08-02T06:05:46;8.73;;;4.53;;
57730;SDS011;43570;47.476;19.040;2022-08-02T06:08:16;7.82;;;4.93;;
57730;SDS011;43570;47.476;19.040;2022-08-02T06:10:44;6.28;;;4.43;;
57730;SDS011;43570;47.476;19.040;2022-08-02T06:13:11;8.05;;;4.80;;
57730;SDS011;43570;47.476;19.040;2022-08-02T06:15:38;8.27;;;4.50;;
57730;SDS011;43570;47.476;19.040;2022-08-02T06:18:04;6.97;;;3.97;;
57730;SDS011;43570;47.476;19.040;2022-08-02T06:20:31;6.47;;;4.12;;
57730;SDS011;43570;47.476;19.040;2022-08-02T06:23:00;9.18;;;4.45;;
57730;SDS011;43570;47.476;19.040;2022-08-02T06:25:31;6.00;;;3.80;;
57730;SDS011;43570;47.476;19.040;2022-08-02T06:27:58;6.60;;;3.83;;
57730;SDS011;43570;47.476;19.040;2022-08-02T06:30:25;6.37;;;4.25;;
57730;SDS011;43570;47.476;19.040;2022-08-02T06:32:51;8.82;;;5.00;;
57730;SDS011;43570;47.476;19.040;2022-08-02T06:35:16;6.30;;;5.00;;
57730;SDS011;43570;47.476;19.040;2022-08-02T06:40:31;6.85;;;3.70;;
57730;SDS011;43570;47.476;19.040;2022-08-02T06:45:29;9.07;;;4.55;;
57730;SDS011;43570;47.476;19.040;2022-08-02T06:47:54;8.27;;;4.40;;
57730;SDS011;43570;47.476;19.040;2022-08-02T06:50:20;5.85;;;3.92;;
57730;SDS011;43570;47.476;19.040;2022-08-02T06:52:45;10.98;;;4.90;;
57730;SDS011;43570;47.476;19.040;2022-08-02T06:55:10;6.55;;;4.00;;
57730;SDS011;43570;47.476;19.040;2022-08-02T06:57:36;7.28;;;4.87;;
57730;SDS011;43570;47.476;19.040;2022-08-02T07:00:02;7.05;;;4.00;;
57730;SDS011;43570;47.476;19.040;2022-08-02T07:02:36;6.43;;;3.45;;
57730;SDS011;43570;47.476;19.040;2022-08-02T07:05:02;5.43;;;3.72;;
57730;SDS011;43570;47.476;19.040;2022-08-02T07:07:28;7.12;;;4.30;;
57730;SDS011;43570;47.476;19.040;2022-08-02T07:09:53;6.45;;;3.78;;
57730;SDS011;43570;47.476;19.040;2022-08-02T07:12:18;5.87;;;3.72;;
57730;SDS011;43570;47.476;19.040;2022-08-02T07:14:44;5.78;;;3.87;;
57730;SDS011;43570;47.476;19.040;2022-08-02T07:17:10;5.80;;;3.70;;
57730;SDS011;43570;47.476;19.040;2022-08-02T07:19:36;7.40;;;4.45;;
57730;SDS011;43570;47.476;19.040;2022-08-02T07:22:02;7.93;;;4.35;;
57730;SDS011;43570;47.476;19.040;2022-08-02T07:24:27;6.32;;;3.87;;
57730;SDS011;43570;47.476;19.040;2022-08-02T07:26:53;7.37;;;4.03;;
57730;SDS011;43570;47.476;19.040;2022-08-02T07:29:18;8.23;;;3.92;;
57730;SDS011;43570;47.476;19.040;2022-08-02T07:31:43;7.40;;;4.00;;
57730;SDS011;43570;47.476;19.040;2022-08-02T07:34:09;8.43;;;4.12;;
57730;SDS011;43570;47.476;19.040;2022-08-02T07:36:34;6.03;;;3.70;;
57730;SDS011;43570;47.476;19.040;2022-08-02T07:38:59;6.05;;;3.97;;
57730;SDS011;43570;47.476;19.040;2022-08-02T07:41:25;7.97;;;4.10;;
57730;SDS011;43570;47.476;19.040;2022-08-02T07:43:50;6.50;;;4.07;;
57730;SDS011;43570;47.476;19.040;2022-08-02T07:46:16;4.70;;;3.60;;
57730;SDS011;43570;47.476;19.040;2022-08-02T07:48:42;14.63;;;4.50;;
57730;SDS011;43570;47.476;19.040;2022-08-02T07:51:07;10.57;;;4.07;;
57730;SDS011;43570;47.476;19.040;2022-08-02T07:53:32;7.32;;;3.87;;
57730;SDS011;43570;47.476;19.040;2022-08-02T07:55:58;10.48;;;4.10;;
57730;SDS011;43570;47.476;19.040;2022-08-02T07:58:23;21.00;;;7.60;;
57730;SDS011;43570;47.476;19.040;2022-08-02T08:00:49;10.88;;;4.20;;
57730;SDS011;43570;47.476;19.040;2022-08-02T08:03:14;6.70;;;3.80;;
57730;SDS011;43570;47.476;19.040;2022-08-02T08:05:40;7.40;;;4.20;;
57730;SDS011;43570;47.476;19.040;2022-08-02T08:08:05;5.70;;;3.85;;
57730;SDS011;43570;47.476;19.040;2022-08-02T08:10:31;5.45;;;3.78;;
57730;SDS011;43570;47.476;19.040;2022-08-02T08:12:56;6.75;;;4.22;;
57730;SDS011;43570;47.476;19.040;2022-08-02T08:15:22;7.07;;;3.80;;
57730;SDS011;43570;47.476;19.040;2022-08-02T08:17:47;6.85;;;3.85;;
57730;SDS011;43570;47.476;19.040;2022-08-02T08:20:13;5.60;;;3.80;;
57730;SDS011;43570;47.476;19.040;2022-08-02T08:22:38;6.85;;;4.60;;
57730;SDS011;43570;47.476;19.040;2022-08-02T08:25:03;8.77;;;4.30;;
57730;SDS011;43570;47.476;19.040;2022-08-02T08:27:29;9.82;;;4.10;;
57730;SDS011;43570;47.476;19.040;2022-08-02T08:29:55;8.77;;;4.35;;
57730;SDS011;43570;47.476;19.040;2022-08-02T08:32:21;7.20;;;3.90;;
57730;SDS011;43570;47.476;19.040;2022-08-02T08:34:46;5.82;;;3.72;;
57730;SDS011;43570;47.476;19.040;2022-08-02T08:37:12;6.82;;;4.30;;
57730;SDS011;43570;47.476;19.040;2022-08-02T08:39:38;6.07;;;3.80;;
57730;SDS011;43570;47.476;19.040;2022-08-02T08:42:07;8.65;;;4.10;;
57730;SDS011;43570;47.476;19.040;2022-08-02T08:44:33;5.57;;;4.22;;
57730;SDS011;43570;47.476;19.040;2022-08-02T08:46:59;7.22;;;4.15;;
57730;SDS011;43570;47.476;19.040;2022-08-02T08:49:26;6.40;;;3.87;;
57730;SDS011;43570;47.476;19.040;2022-08-02T08:51:55;5.28;;;3.50;;
57730;SDS011;43570;47.476;19.040;2022-08-02T08:54:22;5.20;;;3.58;;
57730;SDS011;43570;47.476;19.040;2022-08-02T08:56:49;5.23;;;3.63;;
57730;SDS011;43570;47.476;19.040;2022-08-02T08:59:16;4.70;;;3.50;;
57730;SDS011;43570;47.476;19.040;2022-08-02T09:01:42;5.87;;;3.95;;
57730;SDS011;43570;47.476;19.040;2022-08-02T09:04:08;5.95;;;3.25;;
57730;SDS011;43570;47.476;19.040;2022-08-02T09:06:34;9.07;;;4.07;;
57730;SDS011;43570;47.476;19.040;2022-08-02T09:08:59;6.05;;;3.47;;
57730;SDS011;43570;47.476;19.040;2022-08-02T09:11:24;6.25;;;3.60;;
57730;SDS011;43570;47.476;19.040;2022-08-02T09:13:56;8.25;;;3.65;;
57730;SDS011;43570;47.476;19.040;2022-08-02T09:18:59;5.32;;;3.40;;
57730;SDS011;43570;47.476;19.040;2022-08-02T09:21:33;5.90;;;3.80;;
57730;SDS011;43570;47.476;19.040;2022-08-02T09:24:02;6.07;;;3.05;;
57730;SDS011;43570;47.476;19.040;2022-08-02T09:26:40;4.80;;;3.28;;
57730;SDS011;43570;47.476;19.040;2022-08-02T09:29:06;7.75;;;3.20;;
57730;SDS011;43570;47.476;19.040;2022-08-02T09:31:32;5.62;;;3.42;;
57730;SDS011;43570;47.476;19.040;2022-08-02T09:33:59;6.75;;;3.85;;
57730;SDS011;43570;47.476;19.040;2022-08-02T09:36:25;7.20;;;3.62;;
57730;SDS011;43570;47.476;19.040;2022-08-02T09:38:59;5.12;;;3.33;;
57730;SDS011;43570;47.476;19.040;2022-08-02T09:41:29;4.82;;;3.10;;
57730;SDS011;43570;47.476;19.040;2022-08-02T09:43:56;5.55;;;3.20;;
57730;SDS011;43570;47.476;19.040;2022-08-02T09:46:23;5.68;;;3.50;;
57730;SDS011;43570;47.476;19.040;2022-08-02T09:48:56;7.00;;;3.60;;
57730;SDS011;43570;47.476;19.040;2022-08-02T09:51:26;6.43;;;3.53;;
57730;SDS011;43570;47.476;19.040;2022-08-02T09:54:06;6.37;;;3.80;;
57730;SDS011;43570;47.476;19.040;2022-08-02T09:56:46;8.25;;;3.00;;
57730;SDS011;43570;47.476;19.040;2022-08-02T09:59:14;4.62;;;2.97;;
57730;SDS011;43570;47.476;19.040;2022-08-02T10:01:40;8.68;;;3.30;;
57730;SDS011;43570;47.476;19.040;2022-08-02T10:04:07;5.15;;;2.47;;
57730;SDS011;43570;47.476;19.040;2022-08-02T10:06:37;5.47;;;3.12;;
57730;SDS011;43570;47.476;19.040;2022-08-02T10:09:03;7.35;;;3.00;;
57730;SDS011;43570;47.476;19.040;2022-08-02T10:11:29;6.40;;;2.50;;
57730;SDS011;43570;47.476;19.040;2022-08-02T10:13:55;4.07;;;2.60;;
57730;SDS011;43570;47.476;19.040;2022-08-02T10:16:22;4.18;;;2.78;;
57730;SDS011;43570;47.476;19.040;2022-08-02T10:18:49;4.12;;;2.40;;
57730;SDS011;43570;47.476;19.040;2022-08-02T10:21:39;5.35;;;2.90;;
57730;SDS011;43570;47.476;19.040;2022-08-02T10:24:22;4.87;;;3.10;;
57730;SDS011;43570;47.476;19.040;2022-08-02T10:26:51;7.55;;;3.03;;
57730;SDS011;43570;47.476;19.040;2022-08-02T10:29:17;3.20;;;2.30;;
57730;SDS011;43570;47.476;19.040;2022-08-02T10:32:03;4.95;;;2.70;;
57730;SDS011;43570;47.476;19.040;2022-08-02T10:34:35;2.95;;;2.60;;
57730;SDS011;43570;47.476;19.040;2022-08-02T10:37:21;5.62;;;3.28;;
57730;SDS011;43570;47.476;19.040;2022-08-02T10:39:53;9.02;;;3.90;;
57730;SDS011;43570;47.476;19.040;2022-08-02T10:45:23;3.40;;;2.75;;
57730;SDS011;43570;47.476;19.040;2022-08-02T10:53:20;5.37;;;2.55;;
57730;SDS011;43570;47.476;19.040;2022-08-02T10:55:49;3.72;;;2.45;;
57730;SDS011;43570;47.476;19.040;2022-08-02T10:58:15;3.97;;;2.70;;
57730;SDS011;43570;47.476;19.040;2022-08-02T11:00:45;3.67;;;2.55;;
57730;SDS011;43570;47.476;19.040;2022-08-02T11:06:02;5.30;;;3.40;;
57730;SDS011;43570;47.476;19.040;2022-08-02T11:08:31;2.80;;;2.40;;
57730;SDS011;43570;47.476;19.040;2022-08-02T11:10:57;3.85;;;2.33;;
57730;SDS011;43570;47.476;19.040;2022-08-02T11:13:26;8.73;;;3.25;;
57730;SDS011;43570;47.476;19.040;2022-08-02T11:16:02;2.92;;;2.33;;
57730;SDS011;43570;47.476;19.040;2022-08-02T11:23:49;5.40;;;2.80;;
57730;SDS011;43570;47.476;19.040;2022-08-02T11:28:55;4.85;;;2.55;;
57730;SDS011;43570;47.476;19.040;2022-08-02T11:31:22;3.58;;;2.45;;
57730;SDS011;43570;47.476;19.040;2022-08-02T11:33:48;4.05;;;2.28;;
57730;SDS011;43570;47.476;19.040;2022-08-02T11:36:14;9.73;;;3.00;;
57730;SDS011;43570;47.476;19.040;2022-08-02T11:38:40;5.40;;;2.72;;
57730;SDS011;43570;47.476;19.040;2022-08-02T11:41:06;12.00;;;3.55;;
57730;SDS011;43570;47.476;19.040;2022-08-02T11:43:31;7.12;;;2.90;;
57730;SDS011;43570;47.476;19.040;2022-08-02T11:45:57;4.78;;;2.67;;
57730;SDS011;43570;47.476;19.040;2022-08-02T11:48:36;4.53;;;2.58;;
57730;SDS011;43570;47.476;19.040;2022-08-02T11:51:09;5.05;;;2.90;;
57730;SDS011;43570;47.476;19.040;2022-08-02T11:53:51;4.22;;;2.70;;
57730;SDS011;43570;47.476;19.040;2022-08-02T11:56:24;5.03;;;2.55;;
57730;SDS011;43570;47.476;19.040;2022-08-02T11:59:06;4.72;;;2.80;;
57730;SDS011;43570;47.476;19.040;2022-08-02T12:01:33;4.50;;;2.10;;
57730;SDS011;43570;47.476;19.040;2022-08-02T12:04:00;6.55;;;3.00;;
57730;SDS011;43570;47.476;19.040;2022-08-02T12:06:27;3.58;;;2.70;;
57730;SDS011;43570;47.476;19.040;2022-08-02T12:11:34;4.65;;;2.50;;
57730;SDS011;43570;47.476;19.040;2022-08-02T12:14:03;5.80;;;2.58;;
57730;SDS011;43570;47.476;19.040;2022-08-02T12:16:35;4.07;;;2.20;;
57730;SDS011;43570;47.476;19.040;2022-08-02T12:19:22;4.30;;;2.80;;
57730;SDS011;43570;47.476;19.040;2022-08-02T12:24:54;7.70;;;2.50;;
57730;SDS011;43570;47.476;19.040;2022-08-02T12:29:57;4.78;;;2.47;;
57730;SDS011;43570;47.476;19.040;2022-08-02T12:32:27;3.58;;;2.28;;
57730;SDS011;43570;47.476;19.040;2022-08-02T12:35:00;3.17;;;2.30;;
57730;SDS011;43570;47.476;19.040;2022-08-02T12:37:36;5.62;;;2.85;;
57730;SDS011;43570;47.476;19.040;2022-08-02T12:42:50;8.05;;;3.72;;
57730;SDS011;43570;47.476;19.040;2022-08-02T12:45:23;8.95;;;4.55;;
57730;SDS011;43570;47.476;19.040;2022-08-02T12:47:51;6.30;;;3.47;;
57730;SDS011;43570;47.476;19.040;2022-08-02T12:50:28;3.28;;;2.40;;
57730;SDS011;43570;47.476;19.040;2022-08-02T12:55:33;4.35;;;3.03;;
57730;SDS011;43570;47.476;19.040;2022-08-02T12:58:00;5.82;;;2.70;;
57730;SDS011;43570;47.476;19.040;2022-08-02T13:00:32;7.55;;;3.10;;
57730;SDS011;43570;47.476;19.040;2022-08-02T13:02:59;3.75;;;2.30;;
57730;SDS011;43570;47.476;19.040;2022-08-02T13:05:25;5.90;;;2.80;;
57730;SDS011;43570;47.476;19.040;2022-08-02T13:10:19;6.12;;;2.28;;
57730;SDS011;43570;47.476;19.040;2022-08-02T13:12:45;4.05;;;2.50;;
57730;SDS011;43570;47.476;19.040;2022-08-02T13:15:11;4.25;;;2.28;;
57730;SDS011;43570;47.476;19.040;2022-08-02T13:17:37;6.75;;;3.35;;
57730;SDS011;43570;47.476;19.040;2022-08-02T13:20:03;4.37;;;2.75;;
57730;SDS011;43570;47.476;19.040;2022-08-02T13:22:29;4.30;;;2.25;;
57730;SDS011;43570;47.476;19.040;2022-08-02T13:24:55;3.47;;;2.20;;
57730;SDS011;43570;47.476;19.040;2022-08-02T13:27:20;3.10;;;2.00;;
57730;SDS011;43570;47.476;19.040;2022-08-02T13:29:46;6.75;;;3.37;;
57730;SDS011;43570;47.476;19.040;2022-08-02T13:32:12;2.08;;;1.70;;
57730;SDS011;43570;47.476;19.040;2022-08-02T13:34:38;6.40;;;2.62;;
57730;SDS011;43570;47.476;19.040;2022-08-02T13:37:04;2.60;;;2.17;;
57730;SDS011;43570;47.476;19.040;2022-08-02T13:39:29;2.15;;;1.62;;
57730;SDS011;43570;47.476;19.040;2022-08-02T13:41:54;3.97;;;2.33;;
57730;SDS011;43570;47.476;19.040;2022-08-02T13:44:20;2.97;;;2.58;;
57730;SDS011;43570;47.476;19.040;2022-08-02T13:46:45;4.97;;;2.42;;
57730;SDS011;43570;47.476;19.040;2022-08-02T13:49:11;2.17;;;1.55;;
57730;SDS011;43570;47.476;19.040;2022-08-02T13:51:39;2.58;;;1.55;;
57730;SDS011;43570;47.476;19.040;2022-08-02T13:54:04;2.75;;;1.80;;
57730;SDS011;43570;47.476;19.040;2022-08-02T13:56:30;2.53;;;1.42;;
57730;SDS011;43570;47.476;19.040;2022-08-02T13:58:55;8.95;;;2.42;;
57730;SDS011;43570;47.476;19.040;2022-08-02T14:01:23;4.35;;;1.60;;
57730;SDS011;43570;47.476;19.040;2022-08-02T14:03:49;5.10;;;2.08;;
57730;SDS011;43570;47.476;19.040;2022-08-02T14:06:14;3.37;;;1.48;;
57730;SDS011;43570;47.476;19.040;2022-08-02T14:08:40;2.60;;;1.62;;
57730;SDS011;43570;47.476;19.040;2022-08-02T14:11:05;4.72;;;2.10;;
57730;SDS011;43570;47.476;19.040;2022-08-02T14:13:31;1.40;;;1.20;;
57730;SDS011;43570;47.476;19.040;2022-08-02T14:15:56;2.10;;;1.62;;
57730;SDS011;43570;47.476;19.040;2022-08-02T14:18:23;2.95;;;1.60;;
57730;SDS011;43570;47.476;19.040;2022-08-02T14:20:49;3.55;;;1.33;;
57730;SDS011;43570;47.476;19.040;2022-08-02T14:23:14;2.92;;;1.15;;
57730;SDS011;43570;47.476;19.040;2022-08-02T14:25:40;1.55;;;1.20;;
57730;SDS011;43570;47.476;19.040;2022-08-02T14:28:05;3.25;;;1.30;;
57730;SDS011;43570;47.476;19.040;2022-08-02T14:30:30;1.48;;;1.10;;
57730;SDS011;43570;47.476;19.040;2022-08-02T14:32:56;3.62;;;2.12;;
57730;SDS011;43570;47.476;19.040;2022-08-02T14:35:21;1.33;;;0.95;;
57730;SDS011;43570;47.476;19.040;2022-08-02T14:37:47;1.80;;;1.45;;
57730;SDS011;43570;47.476;19.040;2022-08-02T14:40:12;3.75;;;1.73;;
57730;SDS011;43570;47.476;19.040;2022-08-02T14:42:38;1.62;;;1.10;;
57730;SDS011;43570;47.476;19.040;2022-08-02T14:45:04;3.72;;;1.40;;
57730;SDS011;43570;47.476;19.040;2022-08-02T14:47:29;3.15;;;1.20;;
57730;SDS011;43570;47.476;19.040;2022-08-02T14:49:55;3.45;;;1.48;;
57730;SDS011;43570;47.476;19.040;2022-08-02T14:52:20;2.70;;;1.45;;
57730;SDS011;43570;47.476;19.040;2022-08-02T14:54:46;1.55;;;1.25;;
57730;SDS011;43570;47.476;19.040;2022-08-02T14:57:11;3.65;;;1.60;;
57730;SDS011;43570;47.476;19.040;2022-08-02T14:59:37;1.52;;;1.40;;
57730;SDS011;43570;47.476;19.040;2022-08-02T15:02:02;1.40;;;1.20;;
57730;SDS011;43570;47.476;19.040;2022-08-02T15:04:27;2.20;;;1.60;;
57730;SDS011;43570;47.476;19.040;2022-08-02T15:06:54;2.65;;;1.50;;
57730;SDS011;43570;47.476;19.040;2022-08-02T15:09:20;4.03;;;1.98;;
57730;SDS011;43570;47.476;19.040;2022-08-02T15:11:46;2.62;;;1.58;;
57730;SDS011;43570;47.476;19.040;2022-08-02T15:14:11;4.40;;;2.05;;
57730;SDS011;43570;47.476;19.040;2022-08-02T15:16:37;5.25;;;1.80;;
57730;SDS011;43570;47.476;19.040;2022-08-02T15:19:03;2.75;;;1.70;;
57730;SDS011;43570;47.476;19.040;2022-08-02T15:21:29;1.30;;;1.20;;
57730;SDS011;43570;47.476;19.040;2022-08-02T15:23:54;1.37;;;1.20;;
57730;SDS011;43570;47.476;19.040;2022-08-02T15:26:20;1.40;;;1.20;;
57730;SDS011;43570;47.476;19.040;2022-08-02T15:28:46;4.00;;;1.65;;
57730;SDS011;43570;47.476;19.040;2022-08-02T15:31:12;1.50;;;1.35;;
57730;SDS011;43570;47.476;19.040;2022-08-02T15:33:41;2.62;;;1.35;;
57730;SDS011;43570;47.476;19.040;2022-08-02T15:36:08;2.33;;;1.60;;
57730;SDS011;43570;47.476;19.040;2022-08-02T15:38:34;1.70;;;1.30;;